sensor_id;sensor_type;location;lat;lon;timestamp;temperature;humidity
12700;DHT22;6414;49.570;6.060;2022-11-15T00:02:29;10.90;99.90
12700;DHT22;6414;49.570;6.060;2022-11-15T00:05:14;10.90;99.90
12700;DHT22;6414;49.570;6.060;2022-11-15T00:07:59;10.90;99.90
12700;DHT22;6414;49.570;6.060;2022-11-15T00:10:55;10.90;99.90
12700;DHT22;6414;49.570;6.060;2022-11-15T00:13:40;11.00;99.90
12700;DHT22;6414;49.570;6.060;2022-11-15T00:16:26;11.00;99.90
12700;DHT22;6414;49.570;6.060;2022-11-15T00:19:11;11.00;99.90
12700;DHT22;6414;49.570;6.060;2022-11-15T00:21:56;11.10;99.90
12700;DHT22;6414;49.570;6.060;2022-11-15T00:24:42;11.10;99.90
12700;DHT22;6414;49.570;6.060;2022-11-15T00:27:28;11.30;99.90
12700;DHT22;6414;49.570;6.060;2022-11-15T00:30:13;11.30;99.90
12700;DHT22;6414;49.570;6.060;2022-11-15T00:33:02;11.40;99.90
12700;DHT22;6414;49.570;6.060;2022-11-15T00:35:47;11.40;99.90
12700;DHT22;6414;49.570;6.060;2022-11-15T00:38:33;11.40;99.90
12700;DHT22;6414;49.570;6.060;2022-11-15T00:41:18;11.50;99.90
12700;DHT22;6414;49.570;6.060;2022-11-15T00:44:03;11.40;99.90
12700;DHT22;6414;49.570;6.060;2022-11-15T00:46:49;11.50;99.90
12700;DHT22;6414;49.570;6.060;2022-11-15T00:49:34;11.50;99.90
12700;DHT22;6414;49.570;6.060;2022-11-15T00:52:19;11.50;99.90
12700;DHT22;6414;49.570;6.060;2022-11-15T00:55:05;11.50;99.90
12700;DHT22;6414;49.570;6.060;2022-11-15T00:57:50;11.50;99.90
12700;DHT22;6414;49.570;6.060;2022-11-15T01:00:36;11.40;99.90
12700;DHT22;6414;49.570;6.060;2022-11-15T01:03:21;11.30;99.90
12700;DHT22;6414;49.570;6.060;2022-11-15T01:06:07;11.40;99.90
12700;DHT22;6414;49.570;6.060;2022-11-15T01:08:52;11.30;99.90
12700;DHT22;6414;49.570;6.060;2022-11-15T01:11:38;11.40;99.90
12700;DHT22;6414;49.570;6.060;2022-11-15T01:14:23;11.30;99.90
12700;DHT22;6414;49.570;6.060;2022-11-15T01:17:09;11.30;99.90
12700;DHT22;6414;49.570;6.060;2022-11-15T01:19:54;11.30;99.90
12700;DHT22;6414;49.570;6.060;2022-11-15T01:22:39;11.30;99.90
12700;DHT22;6414;49.570;6.060;2022-11-15T01:25:24;11.30;99.90
12700;DHT22;6414;49.570;6.060;2022-11-15T01:28:10;11.40;99.90
12700;DHT22;6414;49.570;6.060;2022-11-15T01:30:57;11.40;99.90
12700;DHT22;6414;49.570;6.060;2022-11-15T01:33:41;11.30;99.90
12700;DHT22;6414;49.570;6.060;2022-11-15T01:36:26;11.30;99.90
12700;DHT22;6414;49.570;6.060;2022-11-15T01:39:11;11.30;99.90
12700;DHT22;6414;49.570;6.060;2022-11-15T01:41:56;11.30;99.90
12700;DHT22;6414;49.570;6.060;2022-11-15T01:44:51;11.30;99.90
12700;DHT22;6414;49.570;6.060;2022-11-15T01:47:35;11.30;99.90
12700;DHT22;6414;49.570;6.060;2022-11-15T01:50:19;11.30;99.90
12700;DHT22;6414;49.570;6.060;2022-11-15T01:53:04;11.30;99.90
12700;DHT22;6414;49.570;6.060;2022-11-15T01:55:49;11.20;99.90
12700;DHT22;6414;49.570;6.060;2022-11-15T01:58:35;11.20;99.90
12700;DHT22;6414;49.570;6.060;2022-11-15T02:01:22;11.10;99.90
12700;DHT22;6414;49.570;6.060;2022-11-15T02:04:42;11.20;99.90
12700;DHT22;6414;49.570;6.060;2022-11-15T02:06:59;11.10;99.90
12700;DHT22;6414;49.570;6.060;2022-11-15T02:09:45;11.10;99.90
12700;DHT22;6414;49.570;6.060;2022-11-15T02:12:30;11.10;99.90
12700;DHT22;6414;49.570;6.060;2022-11-15T02:15:16;11.10;99.90
12700;DHT22;6414;49.570;6.060;2022-11-15T02:21:08;10.90;99.90
12700;DHT22;6414;49.570;6.060;2022-11-15T02:32:56;10.80;99.90
12700;DHT22;6414;49.570;6.060;2022-11-15T02:41:15;10.80;99.90
12700;DHT22;6414;49.570;6.060;2022-11-15T02:44:03;10.80;99.90
12700;DHT22;6414;49.570;6.060;2022-11-15T02:47:02;10.70;99.90
12700;DHT22;6414;49.570;6.060;2022-11-15T02:50:03;10.60;99.90
12700;DHT22;6414;49.570;6.060;2022-11-15T02:52:50;10.60;99.90
12700;DHT22;6414;49.570;6.060;2022-11-15T02:55:36;10.50;99.90
12700;DHT22;6414;49.570;6.060;2022-11-15T03:01:47;10.40;99.90
12700;DHT22;6414;49.570;6.060;2022-11-15T03:10:45;10.20;99.90
12700;DHT22;6414;49.570;6.060;2022-11-15T03:19:46;10.10;99.90
12700;DHT22;6414;49.570;6.060;2022-11-15T03:22:32;10.10;99.90
12700;DHT22;6414;49.570;6.060;2022-11-15T03:25:22;10.10;99.90
12700;DHT22;6414;49.570;6.060;2022-11-15T03:28:03;10.00;99.90
12700;DHT22;6414;49.570;6.060;2022-11-15T03:30:49;10.00;99.90
12700;DHT22;6414;49.570;6.060;2022-11-15T03:33:34;10.00;99.90
12700;DHT22;6414;49.570;6.060;2022-11-15T03:36:21;10.00;99.90
12700;DHT22;6414;49.570;6.060;2022-11-15T03:39:06;10.10;99.90
12700;DHT22;6414;49.570;6.060;2022-11-15T03:48:01;10.10;99.90
12700;DHT22;6414;49.570;6.060;2022-11-15T03:50:45;10.10;99.90
12700;DHT22;6414;49.570;6.060;2022-11-15T03:53:31;10.10;99.90
12700;DHT22;6414;49.570;6.060;2022-11-15T03:56:16;10.10;99.90
12700;DHT22;6414;49.570;6.060;2022-11-15T03:59:02;10.10;99.90
12700;DHT22;6414;49.570;6.060;2022-11-15T04:01:47;10.10;99.90
12700;DHT22;6414;49.570;6.060;2022-11-15T04:04:33;10.10;99.90
12700;DHT22;6414;49.570;6.060;2022-11-15T04:07:19;10.10;99.90
12700;DHT22;6414;49.570;6.060;2022-11-15T04:10:05;10.00;99.90
12700;DHT22;6414;49.570;6.060;2022-11-15T04:12:50;9.90;99.90
12700;DHT22;6414;49.570;6.060;2022-11-15T04:15:36;9.80;99.90
12700;DHT22;6414;49.570;6.060;2022-11-15T04:18:21;9.80;99.90
12700;DHT22;6414;49.570;6.060;2022-11-15T04:21:07;9.70;99.90
12700;DHT22;6414;49.570;6.060;2022-11-15T04:24:10;9.70;99.90
12700;DHT22;6414;49.570;6.060;2022-11-15T04:26:58;9.70;99.90
12700;DHT22;6414;49.570;6.060;2022-11-15T04:29:43;9.70;99.90
12700;DHT22;6414;49.570;6.060;2022-11-15T04:32:29;9.60;99.90
12700;DHT22;6414;49.570;6.060;2022-11-15T04:35:14;9.60;99.90
12700;DHT22;6414;49.570;6.060;2022-11-15T04:38:00;9.50;99.90
12700;DHT22;6414;49.570;6.060;2022-11-15T04:40:45;9.50;99.90
12700;DHT22;6414;49.570;6.060;2022-11-15T04:43:27;9.40;99.90
12700;DHT22;6414;49.570;6.060;2022-11-15T04:46:12;9.40;99.90
12700;DHT22;6414;49.570;6.060;2022-11-15T04:48:58;9.30;99.90
12700;DHT22;6414;49.570;6.060;2022-11-15T04:51:43;9.30;99.90
12700;DHT22;6414;49.570;6.060;2022-11-15T04:54:29;9.40;99.90
12700;DHT22;6414;49.570;6.060;2022-11-15T04:57:14;9.30;99.90
12700;DHT22;6414;49.570;6.060;2022-11-15T04:59:59;9.30;99.90
12700;DHT22;6414;49.570;6.060;2022-11-15T05:02:45;9.40;99.90
12700;DHT22;6414;49.570;6.060;2022-11-15T05:05:48;9.30;99.90
12700;DHT22;6414;49.570;6.060;2022-11-15T05:08:34;9.30;99.90
12700;DHT22;6414;49.570;6.060;2022-11-15T05:11:37;9.30;99.90
12700;DHT22;6414;49.570;6.060;2022-11-15T05:14:35;9.20;99.90
12700;DHT22;6414;49.570;6.060;2022-11-15T05:17:20;9.20;99.90
12700;DHT22;6414;49.570;6.060;2022-11-15T05:20:05;9.30;99.90
12700;DHT22;6414;49.570;6.060;2022-11-15T05:22:52;9.30;99.90
12700;DHT22;6414;49.570;6.060;2022-11-15T05:25:36;9.30;99.90
12700;DHT22;6414;49.570;6.060;2022-11-15T05:28:22;9.40;99.90
12700;DHT22;6414;49.570;6.060;2022-11-15T05:31:12;9.40;99.90
12700;DHT22;6414;49.570;6.060;2022-11-15T05:33:56;9.40;99.90
12700;DHT22;6414;49.570;6.060;2022-11-15T05:36:42;9.30;99.90
12700;DHT22;6414;49.570;6.060;2022-11-15T05:39:27;9.30;99.90
12700;DHT22;6414;49.570;6.060;2022-11-15T05:42:16;9.20;99.90
12700;DHT22;6414;49.570;6.060;2022-11-15T05:45:02;9.20;99.90
12700;DHT22;6414;49.570;6.060;2022-11-15T05:47:47;9.10;99.90
12700;DHT22;6414;49.570;6.060;2022-11-15T05:50:32;9.10;99.90
12700;DHT22;6414;49.570;6.060;2022-11-15T05:53:18;9.00;99.90
12700;DHT22;6414;49.570;6.060;2022-11-15T05:56:04;9.00;99.90
12700;DHT22;6414;49.570;6.060;2022-11-15T05:58:49;8.90;99.90
12700;DHT22;6414;49.570;6.060;2022-11-15T06:01:35;8.90;99.90
12700;DHT22;6414;49.570;6.060;2022-11-15T06:04:20;8.80;99.90
12700;DHT22;6414;49.570;6.060;2022-11-15T06:07:05;8.80;99.90
12700;DHT22;6414;49.570;6.060;2022-11-15T06:09:51;8.80;99.90
12700;DHT22;6414;49.570;6.060;2022-11-15T06:12:37;8.80;99.90
12700;DHT22;6414;49.570;6.060;2022-11-15T06:15:22;8.80;99.90
12700;DHT22;6414;49.570;6.060;2022-11-15T06:18:08;8.80;99.90
12700;DHT22;6414;49.570;6.060;2022-11-15T06:20:53;8.70;99.90
12700;DHT22;6414;49.570;6.060;2022-11-15T06:23:38;8.70;99.90
12700;DHT22;6414;49.570;6.060;2022-11-15T06:26:24;8.60;99.90
12700;DHT22;6414;49.570;6.060;2022-11-15T06:29:10;8.60;99.90
12700;DHT22;6414;49.570;6.060;2022-11-15T06:31:55;8.50;99.90
12700;DHT22;6414;49.570;6.060;2022-11-15T06:34:41;8.60;99.90
12700;DHT22;6414;49.570;6.060;2022-11-15T06:37:27;8.50;99.90
12700;DHT22;6414;49.570;6.060;2022-11-15T06:40:12;8.50;99.90
12700;DHT22;6414;49.570;6.060;2022-11-15T06:43:00;8.50;99.90
12700;DHT22;6414;49.570;6.060;2022-11-15T06:45:46;8.40;99.90
12700;DHT22;6414;49.570;6.060;2022-11-15T06:48:31;8.30;99.90
12700;DHT22;6414;49.570;6.060;2022-11-15T06:51:17;8.30;99.90
12700;DHT22;6414;49.570;6.060;2022-11-15T06:54:02;8.30;99.90
12700;DHT22;6414;49.570;6.060;2022-11-15T06:56:47;8.20;99.90
12700;DHT22;6414;49.570;6.060;2022-11-15T06:59:33;8.20;99.90
12700;DHT22;6414;49.570;6.060;2022-11-15T07:02:20;8.00;99.90
12700;DHT22;6414;49.570;6.060;2022-11-15T07:05:04;7.90;99.90
12700;DHT22;6414;49.570;6.060;2022-11-15T07:07:53;7.90;99.90
12700;DHT22;6414;49.570;6.060;2022-11-15T07:10:38;7.80;99.90
12700;DHT22;6414;49.570;6.060;2022-11-15T07:13:26;7.60;99.90
12700;DHT22;6414;49.570;6.060;2022-11-15T07:16:12;7.60;99.90
12700;DHT22;6414;49.570;6.060;2022-11-15T07:18:58;7.80;99.90
12700;DHT22;6414;49.570;6.060;2022-11-15T07:21:43;7.90;99.90
12700;DHT22;6414;49.570;6.060;2022-11-15T07:24:28;7.90;99.90
12700;DHT22;6414;49.570;6.060;2022-11-15T07:27:14;7.90;99.90
12700;DHT22;6414;49.570;6.060;2022-11-15T07:30:00;7.90;99.90
12700;DHT22;6414;49.570;6.060;2022-11-15T07:32:45;7.90;99.90
12700;DHT22;6414;49.570;6.060;2022-11-15T07:35:31;8.00;99.90
12700;DHT22;6414;49.570;6.060;2022-11-15T07:38:16;8.00;99.90
12700;DHT22;6414;49.570;6.060;2022-11-15T07:41:03;8.00;99.90
12700;DHT22;6414;49.570;6.060;2022-11-15T07:43:51;8.00;99.90
12700;DHT22;6414;49.570;6.060;2022-11-15T07:46:34;8.00;99.90
12700;DHT22;6414;49.570;6.060;2022-11-15T07:49:19;8.00;99.90
12700;DHT22;6414;49.570;6.060;2022-11-15T07:52:05;7.90;99.90
12700;DHT22;6414;49.570;6.060;2022-11-15T07:54:50;8.00;99.90
12700;DHT22;6414;49.570;6.060;2022-11-15T07:57:36;7.90;99.90
12700;DHT22;6414;49.570;6.060;2022-11-15T08:00:21;8.00;99.90
12700;DHT22;6414;49.570;6.060;2022-11-15T08:03:08;8.00;99.90
12700;DHT22;6414;49.570;6.060;2022-11-15T08:05:53;8.00;99.90
12700;DHT22;6414;49.570;6.060;2022-11-15T08:08:38;8.00;99.90
12700;DHT22;6414;49.570;6.060;2022-11-15T08:11:24;7.90;99.90
12700;DHT22;6414;49.570;6.060;2022-11-15T08:14:09;7.90;99.90
12700;DHT22;6414;49.570;6.060;2022-11-15T08:16:54;8.00;99.90
12700;DHT22;6414;49.570;6.060;2022-11-15T08:19:40;8.00;99.90
12700;DHT22;6414;49.570;6.060;2022-11-15T08:22:25;8.00;99.90
12700;DHT22;6414;49.570;6.060;2022-11-15T08:25:10;8.10;99.90
12700;DHT22;6414;49.570;6.060;2022-11-15T08:27:56;8.10;99.90
12700;DHT22;6414;49.570;6.060;2022-11-15T08:30:41;8.20;99.90
12700;DHT22;6414;49.570;6.060;2022-11-15T08:33:28;8.30;99.90
12700;DHT22;6414;49.570;6.060;2022-11-15T08:36:14;8.30;99.90
12700;DHT22;6414;49.570;6.060;2022-11-15T08:38:59;8.30;99.90
12700;DHT22;6414;49.570;6.060;2022-11-15T08:41:44;8.30;99.90
12700;DHT22;6414;49.570;6.060;2022-11-15T08:44:29;8.40;99.90
12700;DHT22;6414;49.570;6.060;2022-11-15T08:47:15;8.50;99.90
12700;DHT22;6414;49.570;6.060;2022-11-15T08:50:00;8.60;99.90
12700;DHT22;6414;49.570;6.060;2022-11-15T08:52:48;8.60;99.90
12700;DHT22;6414;49.570;6.060;2022-11-15T08:55:37;8.70;99.90
12700;DHT22;6414;49.570;6.060;2022-11-15T08:58:19;8.80;99.90
12700;DHT22;6414;49.570;6.060;2022-11-15T09:01:04;8.80;99.90
12700;DHT22;6414;49.570;6.060;2022-11-15T09:03:49;9.00;99.90
12700;DHT22;6414;49.570;6.060;2022-11-15T09:06:35;8.90;99.90
12700;DHT22;6414;49.570;6.060;2022-11-15T09:09:20;9.00;99.90
12700;DHT22;6414;49.570;6.060;2022-11-15T09:12:06;9.10;99.90
12700;DHT22;6414;49.570;6.060;2022-11-15T09:14:51;9.10;99.90
12700;DHT22;6414;49.570;6.060;2022-11-15T09:17:36;9.20;99.90
12700;DHT22;6414;49.570;6.060;2022-11-15T09:20:22;9.20;99.90
12700;DHT22;6414;49.570;6.060;2022-11-15T09:23:08;9.20;99.90
12700;DHT22;6414;49.570;6.060;2022-11-15T09:25:57;9.20;99.90
12700;DHT22;6414;49.570;6.060;2022-11-15T09:28:39;9.30;99.90
12700;DHT22;6414;49.570;6.060;2022-11-15T09:31:25;9.40;99.90
12700;DHT22;6414;49.570;6.060;2022-11-15T09:34:11;9.40;99.90
12700;DHT22;6414;49.570;6.060;2022-11-15T09:36:56;9.50;99.90
12700;DHT22;6414;49.570;6.060;2022-11-15T09:39:42;9.60;99.90
12700;DHT22;6414;49.570;6.060;2022-11-15T09:48:51;9.60;99.90
12700;DHT22;6414;49.570;6.060;2022-11-15T09:51:43;9.60;99.90
12700;DHT22;6414;49.570;6.060;2022-11-15T09:54:30;9.70;99.90
12700;DHT22;6414;49.570;6.060;2022-11-15T09:57:16;10.00;99.90
12700;DHT22;6414;49.570;6.060;2022-11-15T10:00:08;9.80;99.90
12700;DHT22;6414;49.570;6.060;2022-11-15T10:03:06;9.80;99.90
12700;DHT22;6414;49.570;6.060;2022-11-15T10:05:45;9.80;99.90
12700;DHT22;6414;49.570;6.060;2022-11-15T10:08:55;9.90;99.90
12700;DHT22;6414;49.570;6.060;2022-11-15T10:11:39;9.90;99.90
12700;DHT22;6414;49.570;6.060;2022-11-15T10:14:25;10.00;99.90
12700;DHT22;6414;49.570;6.060;2022-11-15T10:23:10;10.00;99.90
12700;DHT22;6414;49.570;6.060;2022-11-15T10:25:54;10.10;99.90
12700;DHT22;6414;49.570;6.060;2022-11-15T10:28:38;10.20;99.90
12700;DHT22;6414;49.570;6.060;2022-11-15T10:31:28;10.20;99.90
12700;DHT22;6414;49.570;6.060;2022-11-15T10:34:20;10.20;99.90
12700;DHT22;6414;49.570;6.060;2022-11-15T10:37:00;10.30;99.90
12700;DHT22;6414;49.570;6.060;2022-11-15T10:39:53;10.50;99.90
12700;DHT22;6414;49.570;6.060;2022-11-15T10:42:31;10.90;99.90
12700;DHT22;6414;49.570;6.060;2022-11-15T10:45:24;10.90;99.90
12700;DHT22;6414;49.570;6.060;2022-11-15T10:50:59;10.80;99.90
12700;DHT22;6414;49.570;6.060;2022-11-15T10:53:44;10.80;99.90
12700;DHT22;6414;49.570;6.060;2022-11-15T10:56:29;10.80;99.90
12700;DHT22;6414;49.570;6.060;2022-11-15T10:59:23;10.80;99.90
12700;DHT22;6414;49.570;6.060;2022-11-15T11:02:23;10.90;99.90
12700;DHT22;6414;49.570;6.060;2022-11-15T11:04:49;10.90;99.90
12700;DHT22;6414;49.570;6.060;2022-11-15T11:07:34;11.00;99.90
12700;DHT22;6414;49.570;6.060;2022-11-15T11:10:20;11.00;99.90
12700;DHT22;6414;49.570;6.060;2022-11-15T11:13:28;11.00;99.90
12700;DHT22;6414;49.570;6.060;2022-11-15T11:27:57;11.10;99.90
12700;DHT22;6414;49.570;6.060;2022-11-15T11:30:55;11.10;99.90
12700;DHT22;6414;49.570;6.060;2022-11-15T11:33:42;11.20;99.90
12700;DHT22;6414;49.570;6.060;2022-11-15T11:39:59;11.30;99.90
12700;DHT22;6414;49.570;6.060;2022-11-15T11:45:28;11.40;99.90
12700;DHT22;6414;49.570;6.060;2022-11-15T11:48:14;11.60;99.90
12700;DHT22;6414;49.570;6.060;2022-11-15T11:51:01;11.40;99.90
12700;DHT22;6414;49.570;6.060;2022-11-15T11:56:57;11.30;99.90
12700;DHT22;6414;49.570;6.060;2022-11-15T11:59:50;11.40;99.90
12700;DHT22;6414;49.570;6.060;2022-11-15T12:02:40;11.50;99.90
12700;DHT22;6414;49.570;6.060;2022-11-15T12:05:53;11.50;99.90
12700;DHT22;6414;49.570;6.060;2022-11-15T12:11:55;11.50;99.90
12700;DHT22;6414;49.570;6.060;2022-11-15T12:14:56;11.60;99.90
12700;DHT22;6414;49.570;6.060;2022-11-15T12:17:38;11.70;99.90
12700;DHT22;6414;49.570;6.060;2022-11-15T12:20:23;11.60;99.90
12700;DHT22;6414;49.570;6.060;2022-11-15T12:23:12;11.70;99.90
12700;DHT22;6414;49.570;6.060;2022-11-15T12:26:15;11.70;99.90
12700;DHT22;6414;49.570;6.060;2022-11-15T12:29:01;11.70;99.90
12700;DHT22;6414;49.570;6.060;2022-11-15T12:31:47;11.80;99.90
12700;DHT22;6414;49.570;6.060;2022-11-15T12:34:41;11.90;99.90
12700;DHT22;6414;49.570;6.060;2022-11-15T12:40:23;11.90;99.90
12700;DHT22;6414;49.570;6.060;2022-11-15T12:46:01;12.00;99.90
12700;DHT22;6414;49.570;6.060;2022-11-15T12:48:45;12.00;99.90
12700;DHT22;6414;49.570;6.060;2022-11-15T13:03:20;11.90;99.90
12700;DHT22;6414;49.570;6.060;2022-11-15T13:06:05;12.00;99.90
12700;DHT22;6414;49.570;6.060;2022-11-15T13:08:49;12.10;99.90
12700;DHT22;6414;49.570;6.060;2022-11-15T13:11:45;12.10;99.90
12700;DHT22;6414;49.570;6.060;2022-11-15T13:14:45;12.00;99.90
12700;DHT22;6414;49.570;6.060;2022-11-15T13:23:11;11.90;99.90
12700;DHT22;6414;49.570;6.060;2022-11-15T13:26:12;11.90;99.90
12700;DHT22;6414;49.570;6.060;2022-11-15T13:28:55;11.90;99.90
12700;DHT22;6414;49.570;6.060;2022-11-15T13:31:42;11.90;99.90
12700;DHT22;6414;49.570;6.060;2022-11-15T13:34:32;12.00;99.90
12700;DHT22;6414;49.570;6.060;2022-11-15T13:40:25;12.00;99.90
12700;DHT22;6414;49.570;6.060;2022-11-15T13:46:11;12.10;99.90
12700;DHT22;6414;49.570;6.060;2022-11-15T13:49:05;12.10;99.90
12700;DHT22;6414;49.570;6.060;2022-11-15T13:51:50;12.20;99.90
12700;DHT22;6414;49.570;6.060;2022-11-15T13:54:40;12.20;99.90
12700;DHT22;6414;49.570;6.060;2022-11-15T13:57:34;12.10;99.90
12700;DHT22;6414;49.570;6.060;2022-11-15T14:00:37;12.20;99.90
12700;DHT22;6414;49.570;6.060;2022-11-15T14:03:23;12.20;99.90
12700;DHT22;6414;49.570;6.060;2022-11-15T14:06:14;12.20;99.90
12700;DHT22;6414;49.570;6.060;2022-11-15T14:11:56;12.30;99.90
12700;DHT22;6414;49.570;6.060;2022-11-15T14:14:46;12.20;99.90
12700;DHT22;6414;49.570;6.060;2022-11-15T14:17:35;12.30;99.90
12700;DHT22;6414;49.570;6.060;2022-11-15T14:20:27;12.30;99.90
12700;DHT22;6414;49.570;6.060;2022-11-15T14:23:24;12.30;99.90
12700;DHT22;6414;49.570;6.060;2022-11-15T14:26:10;12.20;99.90
12700;DHT22;6414;49.570;6.060;2022-11-15T14:28:51;12.20;99.90
12700;DHT22;6414;49.570;6.060;2022-11-15T14:31:36;12.20;99.90
12700;DHT22;6414;49.570;6.060;2022-11-15T14:34:22;12.20;99.90
12700;DHT22;6414;49.570;6.060;2022-11-15T14:37:21;12.20;99.90
12700;DHT22;6414;49.570;6.060;2022-11-15T14:40:05;12.20;99.90
12700;DHT22;6414;49.570;6.060;2022-11-15T14:42:50;12.20;99.90
12700;DHT22;6414;49.570;6.060;2022-11-15T14:45:35;12.20;99.90
12700;DHT22;6414;49.570;6.060;2022-11-15T14:48:21;12.20;99.90
12700;DHT22;6414;49.570;6.060;2022-11-15T14:51:12;12.20;99.90
12700;DHT22;6414;49.570;6.060;2022-11-15T14:53:57;12.20;99.90
12700;DHT22;6414;49.570;6.060;2022-11-15T14:56:42;12.20;99.90
12700;DHT22;6414;49.570;6.060;2022-11-15T14:59:28;12.20;99.90
12700;DHT22;6414;49.570;6.060;2022-11-15T15:02:21;12.20;99.90
12700;DHT22;6414;49.570;6.060;2022-11-15T15:05:11;12.20;99.90
12700;DHT22;6414;49.570;6.060;2022-11-15T15:07:48;12.20;99.90
12700;DHT22;6414;49.570;6.060;2022-11-15T15:10:35;12.20;99.90
12700;DHT22;6414;49.570;6.060;2022-11-15T15:13:20;12.20;99.90
12700;DHT22;6414;49.570;6.060;2022-11-15T15:16:04;12.10;99.90
12700;DHT22;6414;49.570;6.060;2022-11-15T15:18:49;12.10;99.90
12700;DHT22;6414;49.570;6.060;2022-11-15T15:21:34;12.00;99.90
12700;DHT22;6414;49.570;6.060;2022-11-15T15:24:19;12.00;99.90
12700;DHT22;6414;49.570;6.060;2022-11-15T15:27:06;12.00;99.90
12700;DHT22;6414;49.570;6.060;2022-11-15T15:29:51;12.00;99.90
12700;DHT22;6414;49.570;6.060;2022-11-15T15:32:36;12.00;99.90
12700;DHT22;6414;49.570;6.060;2022-11-15T15:35:22;12.00;99.90
12700;DHT22;6414;49.570;6.060;2022-11-15T15:38:11;12.00;99.90
12700;DHT22;6414;49.570;6.060;2022-11-15T15:40:53;11.90;99.90
12700;DHT22;6414;49.570;6.060;2022-11-15T15:43:39;12.00;99.90
12700;DHT22;6414;49.570;6.060;2022-11-15T15:46:24;11.90;99.90
12700;DHT22;6414;49.570;6.060;2022-11-15T15:49:10;11.90;99.90
12700;DHT22;6414;49.570;6.060;2022-11-15T15:51:55;11.90;99.90
12700;DHT22;6414;49.570;6.060;2022-11-15T15:54:40;11.80;99.90
12700;DHT22;6414;49.570;6.060;2022-11-15T15:57:25;11.80;99.90
12700;DHT22;6414;49.570;6.060;2022-11-15T16:00:11;11.80;99.90
12700;DHT22;6414;49.570;6.060;2022-11-15T16:02:56;11.80;99.90
12700;DHT22;6414;49.570;6.060;2022-11-15T16:05:42;11.80;99.90
12700;DHT22;6414;49.570;6.060;2022-11-15T16:08:27;11.80;99.90
12700;DHT22;6414;49.570;6.060;2022-11-15T16:11:13;11.80;99.90
12700;DHT22;6414;49.570;6.060;2022-11-15T16:13:59;11.70;99.90
12700;DHT22;6414;49.570;6.060;2022-11-15T16:16:44;11.70;99.90
12700;DHT22;6414;49.570;6.060;2022-11-15T16:19:30;11.70;99.90
12700;DHT22;6414;49.570;6.060;2022-11-15T16:22:15;11.70;99.90
12700;DHT22;6414;49.570;6.060;2022-11-15T16:25:00;11.70;99.90
12700;DHT22;6414;49.570;6.060;2022-11-15T16:27:46;11.70;99.90
12700;DHT22;6414;49.570;6.060;2022-11-15T16:30:31;11.70;99.90
12700;DHT22;6414;49.570;6.060;2022-11-15T16:33:17;11.70;99.90
12700;DHT22;6414;49.570;6.060;2022-11-15T16:36:12;11.70;99.90
12700;DHT22;6414;49.570;6.060;2022-11-15T16:38:51;11.70;99.90
12700;DHT22;6414;49.570;6.060;2022-11-15T16:41:37;11.70;99.90
12700;DHT22;6414;49.570;6.060;2022-11-15T16:44:22;11.70;99.90
12700;DHT22;6414;49.570;6.060;2022-11-15T16:47:19;11.70;99.90
12700;DHT22;6414;49.570;6.060;2022-11-15T16:50:05;11.60;99.90
12700;DHT22;6414;49.570;6.060;2022-11-15T16:52:54;11.70;99.90
12700;DHT22;6414;49.570;6.060;2022-11-15T16:55:38;11.70;99.90
12700;DHT22;6414;49.570;6.060;2022-11-15T16:58:24;11.60;99.90
12700;DHT22;6414;49.570;6.060;2022-11-15T17:01:15;11.60;99.90
12700;DHT22;6414;49.570;6.060;2022-11-15T17:03:55;11.70;99.90
12700;DHT22;6414;49.570;6.060;2022-11-15T17:06:41;11.60;99.90
12700;DHT22;6414;49.570;6.060;2022-11-15T17:09:26;11.60;99.90
12700;DHT22;6414;49.570;6.060;2022-11-15T17:12:11;11.60;99.90
12700;DHT22;6414;49.570;6.060;2022-11-15T17:14:57;11.70;99.90
12700;DHT22;6414;49.570;6.060;2022-11-15T17:17:43;11.70;99.90
12700;DHT22;6414;49.570;6.060;2022-11-15T17:20:29;11.70;99.90
12700;DHT22;6414;49.570;6.060;2022-11-15T17:23:14;11.70;99.90
12700;DHT22;6414;49.570;6.060;2022-11-15T17:26:03;11.70;99.90
12700;DHT22;6414;49.570;6.060;2022-11-15T17:28:48;11.70;99.90
12700;DHT22;6414;49.570;6.060;2022-11-15T17:31:34;11.70;99.90
12700;DHT22;6414;49.570;6.060;2022-11-15T17:34:19;11.70;99.90
12700;DHT22;6414;49.570;6.060;2022-11-15T17:37:04;11.70;99.90
12700;DHT22;6414;49.570;6.060;2022-11-15T17:39:50;11.70;99.90
12700;DHT22;6414;49.570;6.060;2022-11-15T17:42:35;11.60;99.90
12700;DHT22;6414;49.570;6.060;2022-11-15T17:45:20;11.60;99.90
12700;DHT22;6414;49.570;6.060;2022-11-15T17:48:05;11.60;99.90
12700;DHT22;6414;49.570;6.060;2022-11-15T17:50:56;11.60;99.90
12700;DHT22;6414;49.570;6.060;2022-11-15T17:53:43;11.60;99.90
12700;DHT22;6414;49.570;6.060;2022-11-15T17:56:27;11.60;99.90
12700;DHT22;6414;49.570;6.060;2022-11-15T17:59:12;11.60;99.90
12700;DHT22;6414;49.570;6.060;2022-11-15T18:01:58;11.60;99.90
12700;DHT22;6414;49.570;6.060;2022-11-15T18:04:43;11.60;99.90
12700;DHT22;6414;49.570;6.060;2022-11-15T18:07:29;11.60;99.90
12700;DHT22;6414;49.570;6.060;2022-11-15T18:10:14;11.60;99.90
12700;DHT22;6414;49.570;6.060;2022-11-15T18:12:59;11.60;99.90
12700;DHT22;6414;49.570;6.060;2022-11-15T18:15:48;11.60;99.90
12700;DHT22;6414;49.570;6.060;2022-11-15T18:18:31;11.60;99.90
12700;DHT22;6414;49.570;6.060;2022-11-15T18:21:17;11.60;99.90
12700;DHT22;6414;49.570;6.060;2022-11-15T18:24:01;11.50;99.90
12700;DHT22;6414;49.570;6.060;2022-11-15T18:26:46;11.60;99.90
12700;DHT22;6414;49.570;6.060;2022-11-15T18:29:38;11.50;99.90
12700;DHT22;6414;49.570;6.060;2022-11-15T18:32:23;11.50;99.90
12700;DHT22;6414;49.570;6.060;2022-11-15T18:35:10;11.50;99.90
12700;DHT22;6414;49.570;6.060;2022-11-15T18:37:55;11.50;99.90
12700;DHT22;6414;49.570;6.060;2022-11-15T18:40:40;11.50;99.90
12700;DHT22;6414;49.570;6.060;2022-11-15T18:43:26;11.60;99.90
12700;DHT22;6414;49.570;6.060;2022-11-15T18:46:14;11.60;99.90
12700;DHT22;6414;49.570;6.060;2022-11-15T18:48:59;11.60;99.90
12700;DHT22;6414;49.570;6.060;2022-11-15T18:51:44;11.60;99.90
12700;DHT22;6414;49.570;6.060;2022-11-15T18:54:30;11.60;99.90
12700;DHT22;6414;49.570;6.060;2022-11-15T18:57:15;11.60;99.90
12700;DHT22;6414;49.570;6.060;2022-11-15T19:00:01;11.70;99.90
12700;DHT22;6414;49.570;6.060;2022-11-15T19:02:46;11.70;99.90
12700;DHT22;6414;49.570;6.060;2022-11-15T19:05:32;11.70;99.90
12700;DHT22;6414;49.570;6.060;2022-11-15T19:08:17;11.70;99.90
12700;DHT22;6414;49.570;6.060;2022-11-15T19:11:13;11.70;99.90
12700;DHT22;6414;49.570;6.060;2022-11-15T19:13:59;11.70;99.90
12700;DHT22;6414;49.570;6.060;2022-11-15T19:16:44;11.70;99.90
12700;DHT22;6414;49.570;6.060;2022-11-15T19:19:28;11.80;99.90
12700;DHT22;6414;49.570;6.060;2022-11-15T19:22:15;11.80;99.90
12700;DHT22;6414;49.570;6.060;2022-11-15T19:25:01;11.80;99.90
12700;DHT22;6414;49.570;6.060;2022-11-15T19:27:47;11.80;99.90
12700;DHT22;6414;49.570;6.060;2022-11-15T19:30:33;11.80;99.90
12700;DHT22;6414;49.570;6.060;2022-11-15T19:33:18;11.80;99.90
12700;DHT22;6414;49.570;6.060;2022-11-15T19:36:05;11.80;99.90
12700;DHT22;6414;49.570;6.060;2022-11-15T19:38:49;11.80;99.90
12700;DHT22;6414;49.570;6.060;2022-11-15T19:41:35;11.80;99.90
12700;DHT22;6414;49.570;6.060;2022-11-15T19:44:20;11.80;99.90
12700;DHT22;6414;49.570;6.060;2022-11-15T19:47:06;11.80;99.90
12700;DHT22;6414;49.570;6.060;2022-11-15T19:49:51;11.80;99.90